createdAt,value
2022-11-07T00:01:39.501Z,11.90
2022-11-07T00:04:06.301Z,11.90
2022-11-07T00:06:33.180Z,11.90
2022-11-07T00:08:59.910Z,11.90
2022-11-07T00:11:26.659Z,11.90
2022-11-07T00:13:53.959Z,11.90
2022-11-07T00:16:20.759Z,11.90
2022-11-07T00:18:47.662Z,11.90
2022-11-07T00:21:14.510Z,11.80
2022-11-07T00:23:42.029Z,11.80
2022-11-07T00:26:12.382Z,11.80
2022-11-07T00:28:41.625Z,11.80
2022-11-07T00:31:11.184Z,11.80
2022-11-07T00:33:38.316Z,11.80
2022-11-07T00:36:06.573Z,11.80
2022-11-07T00:38:33.328Z,11.80
2022-11-07T00:41:02.841Z,11.80
2022-11-07T00:43:30.387Z,11.80
2022-11-07T00:45:57.814Z,11.80
2022-11-07T00:48:24.743Z,11.80
2022-11-07T00:50:51.508Z,11.80
2022-11-07T00:53:18.292Z,11.80
2022-11-07T00:55:45.382Z,11.80
2022-11-07T00:58:14.093Z,11.90
2022-11-07T01:00:41.513Z,11.90
2022-11-07T01:03:27.076Z,11.80
2022-11-07T01:06:02.159Z,11.90
2022-11-07T01:08:29.314Z,11.90
2022-11-07T01:10:57.164Z,11.90
2022-11-07T01:13:24.138Z,11.90
2022-11-07T01:15:51.565Z,11.90
2022-11-07T01:18:18.436Z,11.90
2022-11-07T01:20:45.153Z,11.90
2022-11-07T01:23:12.157Z,11.90
2022-11-07T01:25:40.105Z,11.80
2022-11-07T01:28:08.513Z,11.80
2022-11-07T01:30:42.996Z,11.80
2022-11-07T01:33:10.799Z,11.80
2022-11-07T01:35:38.151Z,11.80
2022-11-07T01:38:05.473Z,11.80
2022-11-07T01:40:52.585Z,11.90
2022-11-07T01:43:19.606Z,11.90
2022-11-07T01:45:46.312Z,11.90
2022-11-07T01:48:16.149Z,11.90
2022-11-07T01:50:43.048Z,11.90
2022-11-07T01:53:09.961Z,11.90
2022-11-07T01:55:37.118Z,11.90
2022-11-07T01:58:06.598Z,11.90
2022-11-07T02:00:34.623Z,11.90
2022-11-07T02:03:09.120Z,11.90
2022-11-07T02:05:41.809Z,11.90
2022-11-07T02:08:10.095Z,11.90
2022-11-07T02:10:39.398Z,11.90
2022-11-07T02:13:07.817Z,11.90
2022-11-07T02:15:36.287Z,11.90
2022-11-07T02:18:03.496Z,11.90
2022-11-07T02:20:30.498Z,11.90
2022-11-07T02:23:02.375Z,11.90
2022-11-07T02:25:30.164Z,11.90
2022-11-07T02:28:01.149Z,11.90
2022-11-07T02:30:31.368Z,11.90
2022-11-07T02:32:58.269Z,11.80
2022-11-07T02:35:34.748Z,11.80
2022-11-07T02:38:03.163Z,11.80
2022-11-07T02:40:31.610Z,11.90
2022-11-07T02:43:00.135Z,11.90
2022-11-07T02:45:29.615Z,11.90
2022-11-07T02:47:56.378Z,11.90
2022-11-07T02:50:23.299Z,11.90
2022-11-07T02:52:50.075Z,11.90
2022-11-07T02:55:17.178Z,11.90
2022-11-07T02:57:43.990Z,11.90
2022-11-07T03:00:12.791Z,11.90
2022-11-07T03:02:40.443Z,11.90
2022-11-07T03:05:07.657Z,11.90
2022-11-07T03:07:34.449Z,12.00
2022-11-07T03:10:01.195Z,12.00
2022-11-07T03:12:27.939Z,12.00
2022-11-07T03:14:54.624Z,12.00
2022-11-07T03:17:21.416Z,12.00
2022-11-07T03:19:48.189Z,12.00
2022-11-07T03:22:14.983Z,12.00
2022-11-07T03:24:41.805Z,12.00
2022-11-07T03:27:11.755Z,12.00
2022-11-07T03:29:38.453Z,12.00
2022-11-07T03:32:05.483Z,12.00
2022-11-07T03:34:32.175Z,12.00
2022-11-07T03:36:58.895Z,12.10
2022-11-07T03:39:26.097Z,12.00
2022-11-07T03:41:55.284Z,12.10
2022-11-07T03:44:22.238Z,12.10
2022-11-07T03:46:48.964Z,12.10
2022-11-07T03:49:15.724Z,12.10
2022-11-07T03:51:42.431Z,12.10
2022-11-07T03:54:09.191Z,12.10
2022-11-07T03:56:36.124Z,12.10
2022-11-07T03:59:02.867Z,12.10
2022-11-07T04:01:29.694Z,12.20
2022-11-07T04:03:56.596Z,12.20
2022-11-07T04:06:23.505Z,12.20
2022-11-07T04:08:50.225Z,12.20
2022-11-07T04:11:35.705Z,12.20
2022-11-07T04:14:21.197Z,12.20
2022-11-07T04:17:06.540Z,12.20
2022-11-07T04:19:33.297Z,12.20
2022-11-07T04:21:59.940Z,12.20
2022-11-07T04:24:26.586Z,12.20
2022-11-07T04:27:11.707Z,12.20
2022-11-07T04:29:38.344Z,12.20
2022-11-07T04:32:05.136Z,12.20
2022-11-07T04:34:31.778Z,12.20
2022-11-07T04:36:58.420Z,12.20
2022-11-07T04:39:25.098Z,12.20
2022-11-07T04:41:51.742Z,12.20
2022-11-07T04:44:18.382Z,12.20
2022-11-07T04:46:45.044Z,12.20
2022-11-07T04:49:15.089Z,12.20
2022-11-07T04:51:43.229Z,12.20
2022-11-07T04:54:14.228Z,12.20
2022-11-07T04:56:41.630Z,12.20
2022-11-07T04:59:08.568Z,12.20
2022-11-07T05:01:35.273Z,12.30
2022-11-07T05:04:02.017Z,12.20
2022-11-07T05:06:29.214Z,12.20
2022-11-07T05:08:55.892Z,12.30
2022-11-07T05:11:22.598Z,12.20
2022-11-07T05:13:49.253Z,12.30
2022-11-07T05:16:19.588Z,12.30
2022-11-07T05:18:46.400Z,12.30
2022-11-07T05:21:13.143Z,12.30
2022-11-07T05:23:39.818Z,12.20
2022-11-07T05:26:06.513Z,12.20
2022-11-07T05:28:38.752Z,12.20
2022-11-07T05:31:08.003Z,12.20
2022-11-07T05:33:34.949Z,12.20
2022-11-07T05:36:13.072Z,12.20
2022-11-07T05:38:44.540Z,12.20
2022-11-07T05:41:12.945Z,12.20
2022-11-07T05:43:40.217Z,12.20
2022-11-07T05:46:07.365Z,12.10
2022-11-07T05:48:34.604Z,12.20
2022-11-07T05:51:01.507Z,12.10
2022-11-07T05:53:28.664Z,12.10
2022-11-07T05:55:56.968Z,12.10
2022-11-07T05:58:24.417Z,12.10
2022-11-07T06:00:51.206Z,12.10
2022-11-07T06:03:20.430Z,12.10
2022-11-07T06:05:47.489Z,12.10
2022-11-07T06:08:14.253Z,12.10
2022-11-07T06:10:42.700Z,12.10
2022-11-07T06:13:13.451Z,12.10
2022-11-07T06:15:41.199Z,12.10
2022-11-07T06:18:13.890Z,12.10
2022-11-07T06:20:40.745Z,12.10
2022-11-07T06:23:07.498Z,12.00
2022-11-07T06:25:35.278Z,12.00
2022-11-07T06:28:07.702Z,12.00
2022-11-07T06:30:35.638Z,12.00
2022-11-07T06:33:07.398Z,12.00
2022-11-07T06:35:34.700Z,12.00
2022-11-07T06:38:03.404Z,12.00
2022-11-07T06:40:30.465Z,12.00
2022-11-07T06:43:23.222Z,12.00
2022-11-07T06:45:50.099Z,12.00
2022-11-07T06:48:16.752Z,12.00
2022-11-07T06:50:43.444Z,12.00
2022-11-07T06:53:12.990Z,12.00
2022-11-07T06:55:40.094Z,12.00
2022-11-07T06:58:07.210Z,12.00
2022-11-07T07:00:35.831Z,12.00
2022-11-07T07:03:02.967Z,12.00
2022-11-07T07:05:29.917Z,12.00
2022-11-07T07:07:56.633Z,12.00
2022-11-07T07:10:25.100Z,12.00
2022-11-07T07:12:53.172Z,12.00
2022-11-07T07:15:20.006Z,12.10
2022-11-07T07:17:46.667Z,12.10
2022-11-07T07:20:13.416Z,12.10
2022-11-07T07:22:40.550Z,12.10
2022-11-07T07:25:08.029Z,12.10
2022-11-07T07:27:34.711Z,12.10
2022-11-07T07:30:01.489Z,12.10
2022-11-07T07:32:28.191Z,12.10
2022-11-07T07:34:54.890Z,12.20
2022-11-07T07:37:21.691Z,12.20
2022-11-07T07:39:48.478Z,12.20
2022-11-07T07:42:15.193Z,12.20
2022-11-07T07:44:41.864Z,12.20
2022-11-07T07:47:11.442Z,12.30
2022-11-07T07:49:38.834Z,12.30
2022-11-07T07:52:05.771Z,12.30
2022-11-07T07:54:32.474Z,12.30
2022-11-07T07:56:59.209Z,12.30
2022-11-07T07:59:25.940Z,12.30
2022-11-07T08:01:56.899Z,12.30
2022-11-07T08:04:24.213Z,12.30
2022-11-07T08:06:50.893Z,12.40
2022-11-07T08:09:17.670Z,12.40
2022-11-07T08:11:44.416Z,12.50
2022-11-07T08:14:11.756Z,12.50
2022-11-07T08:16:38.532Z,12.50
2022-11-07T08:19:05.270Z,12.50
2022-11-07T08:21:32.049Z,12.50
2022-11-07T08:23:58.804Z,12.50
2022-11-07T08:26:26.326Z,12.50
2022-11-07T08:28:54.101Z,12.60
2022-11-07T08:31:21.670Z,12.50
2022-11-07T08:33:48.452Z,12.60
2022-11-07T08:36:15.230Z,12.60
2022-11-07T08:38:41.976Z,12.60
2022-11-07T08:41:08.844Z,12.60
2022-11-07T08:43:35.506Z,12.60
2022-11-07T08:46:02.222Z,12.60
2022-11-07T08:48:28.930Z,12.60
2022-11-07T08:50:57.474Z,12.60
2022-11-07T08:53:26.080Z,12.60
2022-11-07T08:55:52.904Z,12.70
2022-11-07T08:58:20.088Z,12.70
2022-11-07T09:00:47.014Z,12.70
2022-11-07T09:06:01.010Z,12.80
2022-11-07T09:08:27.821Z,12.80
2022-11-07T09:10:54.537Z,12.90
2022-11-07T09:13:21.211Z,12.90
2022-11-07T09:15:51.575Z,12.90
2022-11-07T09:18:19.637Z,12.90
2022-11-07T09:20:46.541Z,13.00
2022-11-07T09:23:13.732Z,13.00
2022-11-07T09:25:40.643Z,13.00
2022-11-07T09:28:07.361Z,13.10
2022-11-07T09:30:34.387Z,13.10
2022-11-07T09:33:01.285Z,13.10
2022-11-07T09:35:28.110Z,13.20
2022-11-07T09:37:55.023Z,13.20
2022-11-07T09:40:24.205Z,13.20
2022-11-07T09:42:50.961Z,13.20
2022-11-07T09:45:17.711Z,13.20
2022-11-07T09:47:54.449Z,13.30
2022-11-07T09:50:40.872Z,13.30
2022-11-07T09:53:15.104Z,13.30
2022-11-07T09:55:58.795Z,13.30
2022-11-07T09:58:34.231Z,13.30
2022-11-07T10:01:06.068Z,13.30
2022-11-07T10:03:38.407Z,13.40
2022-11-07T10:06:24.476Z,13.40
2022-11-07T10:08:59.902Z,13.40
2022-11-07T10:11:46.821Z,13.40
2022-11-07T10:14:34.250Z,13.40
2022-11-07T10:17:25.274Z,13.50
2022-11-07T10:20:10.361Z,13.50
2022-11-07T10:22:45.856Z,13.50
2022-11-07T10:25:43.740Z,13.50
2022-11-07T10:28:19.150Z,13.60
2022-11-07T10:30:51.624Z,13.60
2022-11-07T10:33:26.939Z,13.60
2022-11-07T10:36:01.921Z,13.70
2022-11-07T10:38:31.083Z,13.70
2022-11-07T10:40:57.896Z,13.80
2022-11-07T10:43:39.378Z,13.80
2022-11-07T10:46:18.251Z,13.80
2022-11-07T10:48:59.781Z,13.90
2022-11-07T10:51:40.580Z,13.90
2022-11-07T10:54:20.667Z,13.90
2022-11-07T10:56:54.332Z,14.00
2022-11-07T10:59:30.204Z,14.00
2022-11-07T11:02:02.291Z,14.10
2022-11-07T11:04:32.551Z,14.20
2022-11-07T11:07:00.836Z,14.30
2022-11-07T11:09:33.025Z,14.30
2022-11-07T11:12:27.075Z,14.40
2022-11-07T11:15:09.870Z,14.50
2022-11-07T11:17:36.880Z,14.50
2022-11-07T11:20:05.290Z,14.50
2022-11-07T11:22:39.307Z,14.60
2022-11-07T11:25:11.659Z,14.70
2022-11-07T11:27:39.690Z,14.90
2022-11-07T11:30:17.660Z,15.00
2022-11-07T11:33:15.927Z,15.10
2022-11-07T11:36:02.486Z,15.30
2022-11-07T11:38:38.486Z,15.30
2022-11-07T11:41:10.902Z,15.40
2022-11-07T11:44:00.588Z,15.30
2022-11-07T11:46:40.375Z,15.30
2022-11-07T11:49:19.355Z,15.30
2022-11-07T11:51:51.528Z,15.30
2022-11-07T11:54:18.240Z,15.30
2022-11-07T11:56:48.071Z,15.20
2022-11-07T11:59:20.848Z,15.20
2022-11-07T12:02:24.955Z,15.30
2022-11-07T12:05:19.301Z,15.30
2022-11-07T12:08:23.348Z,15.30
2022-11-07T12:10:57.399Z,15.40
2022-11-07T12:13:32.933Z,15.40
2022-11-07T12:16:33.104Z,15.40
2022-11-07T12:19:22.878Z,15.50
2022-11-07T12:22:15.652Z,15.50
2022-11-07T12:24:56.571Z,15.50
2022-11-07T12:27:49.190Z,15.50
2022-11-07T12:30:22.176Z,15.50
2022-11-07T12:33:05.509Z,15.50
2022-11-07T12:35:40.113Z,15.50
2022-11-07T12:38:31.921Z,15.50
2022-11-07T12:41:20.341Z,15.50
2022-11-07T12:44:11.690Z,15.50
2022-11-07T12:46:56.584Z,15.50
2022-11-07T12:49:38.340Z,15.50
2022-11-07T12:52:24.152Z,15.50
2022-11-07T12:55:04.280Z,15.50
2022-11-07T12:57:34.555Z,15.50
2022-11-07T13:00:12.509Z,15.50
2022-11-07T13:02:45.187Z,15.50
2022-11-07T13:05:31.050Z,15.60
2022-11-07T13:08:04.920Z,15.60
2022-11-07T13:10:48.828Z,15.60
2022-11-07T13:13:32.126Z,15.70
2022-11-07T13:16:21.042Z,15.60
2022-11-07T13:18:47.941Z,15.60
2022-11-07T13:21:14.674Z,15.60
2022-11-07T13:23:41.690Z,15.60
2022-11-07T13:26:26.393Z,15.80
2022-11-07T13:28:58.163Z,16.10
2022-11-07T13:31:31.250Z,16.30
2022-11-07T13:34:19.775Z,16.50
2022-11-07T13:36:49.481Z,16.70
2022-11-07T13:39:17.357Z,16.80
2022-11-07T13:41:44.900Z,16.80
2022-11-07T13:44:28.913Z,16.70
2022-11-07T13:47:04.363Z,16.70
2022-11-07T13:49:44.025Z,16.60
2022-11-07T13:52:43.121Z,16.60
2022-11-07T13:55:22.234Z,16.50
2022-11-07T13:57:57.770Z,16.30
2022-11-07T14:00:24.999Z,16.20
2022-11-07T14:02:55.276Z,16.20
2022-11-07T14:05:25.179Z,16.20
2022-11-07T14:07:58.019Z,16.10
2022-11-07T14:10:29.540Z,16.10
2022-11-07T14:13:07.213Z,16.10
2022-11-07T14:15:35.781Z,16.10
2022-11-07T14:18:03.935Z,16.10
2022-11-07T14:20:30.731Z,16.00
2022-11-07T14:23:02.472Z,16.10
2022-11-07T14:25:37.941Z,16.00
2022-11-07T14:28:15.419Z,16.00
2022-11-07T14:30:42.867Z,16.00
2022-11-07T14:33:21.766Z,16.00
2022-11-07T14:35:51.392Z,16.00
2022-11-07T14:38:25.428Z,15.90
2022-11-07T14:40:55.635Z,15.90
2022-11-07T14:43:28.087Z,15.90
2022-11-07T14:46:18.138Z,15.90
2022-11-07T14:48:47.752Z,15.90
2022-11-07T14:51:17.205Z,15.80
2022-11-07T14:54:04.248Z,15.80
2022-11-07T14:56:35.630Z,15.80
2022-11-07T14:59:02.880Z,15.70
2022-11-07T15:01:33.119Z,15.70
2022-11-07T15:04:05.023Z,15.70
2022-11-07T15:06:34.815Z,15.70
2022-11-07T15:09:06.056Z,15.70
2022-11-07T15:11:34.115Z,15.70
2022-11-07T15:14:04.863Z,15.60
2022-11-07T15:16:45.906Z,15.60
2022-11-07T15:19:22.370Z,15.60
2022-11-07T15:21:54.769Z,15.60
2022-11-07T15:24:45.987Z,15.60
2022-11-07T15:27:19.039Z,15.60
2022-11-07T15:30:01.767Z,15.60
2022-11-07T15:32:36.963Z,15.60
2022-11-07T15:35:43.543Z,15.50
2022-11-07T15:38:02.405Z,15.50
2022-11-07T15:40:29.690Z,15.50
2022-11-07T15:42:56.674Z,15.50
2022-11-07T15:45:23.756Z,15.40
2022-11-07T15:47:51.550Z,15.40
2022-11-07T15:50:25.220Z,15.40
2022-11-07T15:52:53.472Z,15.40
2022-11-07T15:55:23.187Z,15.40
2022-11-07T15:57:52.252Z,15.30
2022-11-07T16:00:24.800Z,15.30
2022-11-07T16:02:52.571Z,15.30
2022-11-07T16:05:20.275Z,15.30
2022-11-07T16:07:47.564Z,15.30
2022-11-07T16:10:17.555Z,15.30
2022-11-07T16:12:44.965Z,15.30
2022-11-07T16:15:17.611Z,15.30
2022-11-07T16:17:44.817Z,15.20
2022-11-07T16:20:23.172Z,15.20
2022-11-07T16:22:51.653Z,15.20
2022-11-07T16:25:22.462Z,15.20
2022-11-07T16:27:54.898Z,15.20
2022-11-07T16:30:22.649Z,15.20
2022-11-07T16:32:51.446Z,15.10
2022-11-07T16:35:18.243Z,15.10
2022-11-07T16:37:44.951Z,15.10
2022-11-07T16:40:18.147Z,15.10
2022-11-07T16:42:45.667Z,15.00
2022-11-07T16:45:17.839Z,15.00
2022-11-07T16:47:45.052Z,15.00
2022-11-07T16:50:17.208Z,15.00
2022-11-07T16:52:43.931Z,14.90
2022-11-07T16:55:18.061Z,14.90
2022-11-07T16:57:45.719Z,14.80
2022-11-07T17:00:20.794Z,14.80
2022-11-07T17:02:48.232Z,14.80
2022-11-07T17:05:15.396Z,14.80
2022-11-07T17:07:42.384Z,14.80
2022-11-07T17:10:15.329Z,14.70
2022-11-07T17:12:42.400Z,14.70
2022-11-07T17:15:09.929Z,14.70
2022-11-07T17:17:36.674Z,14.60
2022-11-07T17:20:03.966Z,14.60
2022-11-07T17:22:30.706Z,14.60
2022-11-07T17:24:57.438Z,14.50
2022-11-07T17:27:25.979Z,14.50
2022-11-07T17:29:53.902Z,14.50
2022-11-07T17:32:21.332Z,14.40
2022-11-07T17:34:55.050Z,14.40
2022-11-07T17:37:35.844Z,14.30
2022-11-07T17:40:03.627Z,14.30
2022-11-07T17:42:36.634Z,14.30
2022-11-07T17:45:05.281Z,14.30
2022-11-07T17:47:34.479Z,14.20
2022-11-07T17:50:01.841Z,14.20
2022-11-07T17:52:30.461Z,14.20
2022-11-07T17:54:57.799Z,14.10
2022-11-07T17:57:24.593Z,14.10
2022-11-07T17:59:51.749Z,14.10
2022-11-07T18:02:20.165Z,14.00
2022-11-07T18:04:47.426Z,14.00
2022-11-07T18:07:14.446Z,14.00
2022-11-07T18:09:41.647Z,13.90
2022-11-07T18:12:09.330Z,13.90
2022-11-07T18:14:37.340Z,13.90
2022-11-07T18:17:05.078Z,13.90
2022-11-07T18:19:31.928Z,13.90
2022-11-07T18:21:59.424Z,13.80
2022-11-07T18:24:26.357Z,13.80
2022-11-07T18:26:54.095Z,13.80
2022-11-07T18:29:20.974Z,13.80
2022-11-07T18:31:49.796Z,13.80
2022-11-07T18:34:16.954Z,13.80
2022-11-07T18:36:47.205Z,13.80
2022-11-07T18:39:22.307Z,13.80
2022-11-07T18:41:50.872Z,13.80
2022-11-07T18:44:18.165Z,13.80
2022-11-07T18:46:45.661Z,13.80
2022-11-07T18:49:14.840Z,13.80
2022-11-07T18:51:42.857Z,13.70
2022-11-07T18:54:10.672Z,13.70
2022-11-07T18:56:37.499Z,13.70
2022-11-07T18:59:04.482Z,13.70
2022-11-07T19:01:35.992Z,13.70
2022-11-07T19:04:06.004Z,13.70
2022-11-07T19:06:34.044Z,13.60
2022-11-07T19:09:01.244Z,13.60
2022-11-07T19:11:30.456Z,13.60
2022-11-07T19:14:02.125Z,13.60
2022-11-07T19:16:30.577Z,13.60
2022-11-07T19:18:59.242Z,13.60
2022-11-07T19:21:26.469Z,13.60
2022-11-07T19:23:53.539Z,13.60
2022-11-07T19:26:21.013Z,13.60
2022-11-07T19:28:48.319Z,13.60
2022-11-07T19:31:16.012Z,13.60
2022-11-07T19:33:44.304Z,13.60
2022-11-07T19:36:20.274Z,13.50
2022-11-07T19:38:47.970Z,13.50
2022-11-07T19:41:16.699Z,13.50
2022-11-07T19:43:48.819Z,13.50
2022-11-07T19:46:21.334Z,13.50
2022-11-07T19:48:49.315Z,13.50
2022-11-07T19:51:21.568Z,13.50
2022-11-07T19:53:57.796Z,13.50
2022-11-07T19:56:27.506Z,13.50
2022-11-07T19:58:55.594Z,13.40
2022-11-07T20:01:28.644Z,13.40
2022-11-07T20:03:56.821Z,13.40
2022-11-07T20:06:27.716Z,13.40
2022-11-07T20:08:54.924Z,13.40
2022-11-07T20:11:24.537Z,13.30
2022-11-07T20:13:53.798Z,13.30
2022-11-07T20:16:22.706Z,13.30
2022-11-07T20:18:52.677Z,13.20
2022-11-07T20:21:22.665Z,13.20
2022-11-07T20:23:53.931Z,13.20
2022-11-07T20:26:23.541Z,13.20
2022-11-07T20:28:51.411Z,13.20
2022-11-07T20:31:22.556Z,13.10
2022-11-07T20:33:49.767Z,13.10
2022-11-07T20:36:17.827Z,13.10
2022-11-07T20:38:45.359Z,13.10
2022-11-07T20:41:14.169Z,13.10
2022-11-07T20:43:41.860Z,13.10
2022-11-07T20:46:12.504Z,13.00
2022-11-07T20:48:39.677Z,13.00
2022-11-07T20:51:20.151Z,13.00
2022-11-07T20:53:50.455Z,13.00
2022-11-07T20:56:21.932Z,13.00
2022-11-07T20:58:49.623Z,13.00
2022-11-07T21:01:22.231Z,13.00
2022-11-07T21:03:50.037Z,13.00
2022-11-07T21:06:18.292Z,12.90
2022-11-07T21:08:47.689Z,12.90
2022-11-07T21:11:16.445Z,12.90
2022-11-07T21:13:49.657Z,12.90
2022-11-07T21:16:20.600Z,12.80
2022-11-07T21:18:48.050Z,12.80
2022-11-07T21:21:19.010Z,12.80
2022-11-07T21:23:48.289Z,12.80
2022-11-07T21:26:32.005Z,12.80
2022-11-07T21:28:59.737Z,12.80
2022-11-07T21:31:29.709Z,12.70
2022-11-07T21:33:57.800Z,12.70
2022-11-07T21:36:27.579Z,12.70
2022-11-07T21:38:55.947Z,12.60
2022-11-07T21:41:23.754Z,12.60
2022-11-07T21:43:51.177Z,12.60
2022-11-07T21:46:25.924Z,12.50
2022-11-07T21:48:53.621Z,12.50
2022-11-07T21:51:26.485Z,12.50
2022-11-07T21:53:54.311Z,12.50
2022-11-07T21:56:29.858Z,12.50
2022-11-07T21:59:01.571Z,12.40
2022-11-07T22:01:29.633Z,12.40
2022-11-07T22:04:06.879Z,12.40
2022-11-07T22:06:37.481Z,12.40
2022-11-07T22:09:06.039Z,12.40
2022-11-07T22:11:33.270Z,12.40
2022-11-07T22:14:00.179Z,12.40
2022-11-07T22:16:27.047Z,12.40
2022-11-07T22:18:54.030Z,12.40
2022-11-07T22:21:23.267Z,12.40
2022-11-07T22:23:51.002Z,12.30
2022-11-07T22:26:22.757Z,12.30
2022-11-07T22:28:49.955Z,12.30
2022-11-07T22:31:20.435Z,12.30
2022-11-07T22:33:47.967Z,12.30
2022-11-07T22:36:15.267Z,12.30
2022-11-07T22:38:42.424Z,12.30
2022-11-07T22:41:14.896Z,12.30
2022-11-07T22:43:42.304Z,12.20
2022-11-07T22:46:12.630Z,12.20
2022-11-07T22:48:40.259Z,12.20
2022-11-07T22:51:15.619Z,12.20
2022-11-07T22:53:42.316Z,12.10
2022-11-07T22:56:10.553Z,12.20
2022-11-07T22:58:37.577Z,12.20
2022-11-07T23:01:05.191Z,12.10
2022-11-07T23:03:32.902Z,12.10
2022-11-07T23:06:04.278Z,12.10
2022-11-07T23:08:35.168Z,12.10
2022-11-07T23:11:43.455Z,12.10
2022-11-07T23:14:00.565Z,12.10
2022-11-07T23:16:36.691Z,12.10
2022-11-07T23:19:06.534Z,12.10
2022-11-07T23:21:33.894Z,12.00
2022-11-07T23:24:00.893Z,12.00
2022-11-07T23:26:35.531Z,12.00
2022-11-07T23:29:09.044Z,12.00
2022-11-07T23:31:38.175Z,11.90
2022-11-07T23:34:04.833Z,11.90
2022-11-07T23:36:31.646Z,11.90
2022-11-07T23:39:06.620Z,11.80
2022-11-07T23:41:33.969Z,11.80
2022-11-07T23:44:00.787Z,11.70
2022-11-07T23:46:46.168Z,11.70
2022-11-07T23:49:31.780Z,11.60
2022-11-07T23:51:58.571Z,11.60
2022-11-07T23:55:00.434Z,11.50
2022-11-07T23:57:27.177Z,11.40
